Weather at Bharatpur Airport

Public forecast

Using degrees Celsius for public forecast. Weather courtesy of forecast.io.

Closest aviation weather report (METAR) to Bharatpur Airport

Closest report is Tribhuvan International Airport, 49.4 nm (91.6 km) E. Retrieved 2020/09/29 16:20 UTC (33 minutes ago):

VNKT 291620Z 00000KT 7000 FEW020 22/21 Q1014 NOSIG

Closest aviation forecast (TAF) to Bharatpur Airport

Closest forecast is Tribhuvan International Airport, 49.4 nm (91.6 km) E. Retrieved 2020/09/29 12:51 UTC (4 hours ago):

TAF TAF VNKT 291100Z 2912/3012 18003KT 7000 FEW015 SCT030 BECMG 3000/3002 00000KT 6000 FEW010 SCT030 BECMG 3005/3006 28007KT 8000 FEW015 SCT030 PROB30 3008/3012 5000 -TSRA FEW025CB